KCOF/COF METAR and TAF weather

Enter ICAO airport designator
Station Type Date Time Source
KCOF METAR 2020/07/10 17:56 UTC NOAA

KCOF 101756Z AUTO 29005KT 10SM FEW040 FEW080 SCT120 SCT140 BKN170 BKN190 32/24 A2995 RMK AO2 SLP147 T03200235 10320 20271 58003 $


Station Type Date Time Source
KCOF Decoded METAR 2020/07/10 17:56 UTC NOAA

Cocoa / Patrick Air Force Base, FL, United States (KCOF) 28-14N 080-36W 3M
Jul 10, 2020 - 01:56 PM EDT / 2020.07.10 1756 UTC
Wind: from the WNW (290 degrees) at 6 MPH (5 KT):0
Visibility: 10 mile(s):0
Sky conditions: mostly cloudy
Temperature: 89.6 F (32.0 C)
Heat index: 98.8 F (37.1 C):1
Dew Point: 74.3 F (23.5 C)
Relative Humidity: 60%
Pressure (altimeter): 29.95 in. Hg (1014 hPa)
Pressure tendency: 0.01 inches (0.3 hPa) lower than three hours ago
ob: KCOF 101756Z AUTO 29005KT 10SM FEW040 FEW080 SCT120 SCT140 BKN170 BKN190 32/24 A2995 RMK AO2 SLP147 T03200235 10320 20271 58003
cycle: 18

Station Type Date Time Source
KCOF TAF 2020/07/10 18:06 UTC NOAA

TAF KCOF 101800Z 1018/1124 26009KT 9999 FEW030 SCT250 QNH2990INS
BECMG 1018/1019 15009KT 9000 -SHRA SCT035 BKN220 QNH2992INS
TEMPO 1019/1103 VRB25G35KT 3200 TSRA FEW008 BKN020CB
BECMG 1103/1104 22006KT 9999 NSW SCT040 BKN250 QNH2990INS
BECMG 1114/1115 27009KT 9000 -SHRA VCTS BKN020CB SCT170 QNH2988INS TX33/1117Z TN24/1110Z

Example: see airport list